Time;durP1;ratioP1;P1;durP2;ratioP2;P2;SDS_P1;SDS_P2;PMS_P1;PMS_P2;Temp;Humidity;BMP_temperature;BMP_pressure;BME280_temperature;BME280_humidity;BME280_pressure;Samples;Min_cycle;Max_cycle;Signal;HPM_P1;HPM_P2
2022/11/06 00:00:47;;;;;;;85.63;77.63;;;;;;;;;;4962772;28;20042;-78
2022/11/06 00:03:12;;;;;;;81.38;73.68;;;;;;;;;;4962679;28;20404;-78
2022/11/06 00:08:27;;;;;;;84.97;76.70;;;;;;;;;;4984430;28;20810;-78
2022/11/06 00:10:53;;;;;;;77.88;70.45;;;;;;;;;;4932327;28;20057;-78
2022/11/06 00:13:18;;;;;;;80.22;72.63;;;;;;;;;;4959129;28;20109;-78
2022/11/06 00:15:44;;;;;;;76.05;68.90;;;;;;;;;;4959659;28;20084;-78
2022/11/06 00:18:09;;;;;;;79.90;72.43;;;;;;;;;;4943401;28;20393;-77
2022/11/06 00:20:35;;;;;;;79.95;72.38;;;;;;;;;;4963468;28;20404;-78
2022/11/06 00:23:00;;;;;;;76.55;69.15;;;;;;;;;;4978589;28;20373;-78
2022/11/06 00:25:26;;;;;;;75.38;68.32;;;;;;;;;;4994878;28;20125;-78
2022/11/06 00:27:51;;;;;;;75.15;67.82;;;;;;;;;;4960499;28;20435;-77
2022/11/06 00:30:19;;;;;;;73.90;66.70;;;;;;;;;;4959066;28;20050;-77
2022/11/06 00:32:46;;;;;;;73.47;66.47;;;;;;;;;;4943394;28;20047;-78
2022/11/06 00:35:11;;;;;;;69.38;62.63;;;;;;;;;;4943303;28;20038;-77
2022/11/06 00:37:37;;;;;;;69.65;62.83;;;;;;;;;;4943359;28;20042;-78
2022/11/06 00:40:02;;;;;;;68.88;62.38;;;;;;;;;;4943194;28;20378;-78
2022/11/06 00:42:28;;;;;;;68.55;62.03;;;;;;;;;;4942686;28;20065;-78
2022/11/06 00:44:53;;;;;;;66.88;60.35;;;;;;;;;;4959022;28;20034;-78
2022/11/06 00:47:19;;;;;;;66.40;60.10;;;;;;;;;;4962916;28;20042;-78
2022/11/06 00:49:44;;;;;;;64.00;57.90;;;;;;;;;;4954558;28;20034;-78
2022/11/06 00:52:10;;;;;;;60.80;54.83;;;;;;;;;;4959248;28;20358;-78
2022/11/06 00:54:35;;;;;;;67.05;60.78;;;;;;;;;;4942065;28;20433;-78
2022/11/06 00:57:00;;;;;;;64.10;57.80;;;;;;;;;;4942438;28;20038;-78
2022/11/06 00:59:26;;;;;;;64.90;58.70;;;;;;;;;;4958784;28;20034;-78
2022/11/06 01:01:51;;;;;;;63.17;57.25;;;;;;;;;;4959048;28;20505;-78
2022/11/06 01:04:21;;;;;;;60.60;54.92;;;;;;;;;;4942964;28;20049;-78
2022/11/06 01:06:48;;;;;;;61.53;55.55;;;;;;;;;;4943075;28;20026;-78
2022/11/06 01:09:18;;;;;;;58.90;53.22;;;;;;;;;;4959668;28;20137;-78
2022/11/06 01:11:47;;;;;;;59.85;53.97;;;;;;;;;;4962401;28;20457;-78
2022/11/06 01:14:14;;;;;;;60.47;54.85;;;;;;;;;;4960415;28;20037;-77
2022/11/06 01:16:39;;;;;;;57.08;51.50;;;;;;;;;;4978281;28;20042;-78
2022/11/06 01:19:05;;;;;;;58.67;52.95;;;;;;;;;;4978016;28;20037;-78
2022/11/06 01:21:32;;;;;;;58.40;52.70;;;;;;;;;;4973534;28;20026;-78
2022/11/06 01:24:02;;;;;;;55.30;49.97;;;;;;;;;;4942652;28;20042;-78
2022/11/06 01:26:28;;;;;;;53.47;48.47;;;;;;;;;;4942741;28;20069;-78
2022/11/06 01:28:54;;;;;;;52.63;47.60;;;;;;;;;;4945719;28;20061;-78
2022/11/06 01:31:22;;;;;;;53.83;48.55;;;;;;;;;;4962089;28;20120;-78
2022/11/06 01:33:47;;;;;;;50.35;45.63;;;;;;;;;;4978081;28;20061;-78
2022/11/06 01:36:14;;;;;;;52.70;47.60;;;;;;;;;;4994172;28;20038;-78
2022/11/06 01:38:44;;;;;;;50.55;45.83;;;;;;;;;;4945827;28;20072;-78
2022/11/06 01:41:14;;;;;;;51.13;46.25;;;;;;;;;;4977842;28;20033;-78
2022/11/06 01:43:51;;;;;;;50.38;45.42;;;;;;;;;;4962030;28;20480;-78
2022/11/06 01:46:17;;;;;;;49.70;44.90;;;;;;;;;;4961973;28;20026;-78
2022/11/06 01:48:45;;;;;;;49.75;45.17;;;;;;;;;;4978352;28;20057;-77
2022/11/06 01:51:10;;;;;;;47.15;42.70;;;;;;;;;;4958563;28;20038;-78
2022/11/06 01:53:36;;;;;;;49.10;44.42;;;;;;;;;;4958114;28;20042;-78
2022/11/06 01:56:03;;;;;;;47.67;43.20;;;;;;;;;;4974137;28;20439;-78
2022/11/06 01:58:30;;;;;;;49.10;44.22;;;;;;;;;;4958425;28;20038;-78
2022/11/06 02:00:56;;;;;;;47.20;42.67;;;;;;;;;;4973956;28;20105;-78
2022/11/06 02:03:21;;;;;;;47.90;43.35;;;;;;;;;;4974208;28;20073;-78
2022/11/06 02:05:47;;;;;;;43.65;39.58;;;;;;;;;;4942817;28;20042;-77
2022/11/06 02:08:14;;;;;;;44.78;40.58;;;;;;;;;;4977712;28;20491;-77
2022/11/06 02:10:40;;;;;;;43.85;39.75;;;;;;;;;;4990505;28;20030;-78
2022/11/06 02:13:05;;;;;;;43.60;39.70;;;;;;;;;;4981025;28;20030;-78
2022/11/06 02:15:51;;;;;;;40.63;36.80;;;;;;;;;;4997295;28;20034;-78
2022/11/06 02:18:26;;;;;;;40.10;36.25;;;;;;;;;;4980871;28;20033;-78
2022/11/06 02:21:03;;;;;;;41.92;37.97;;;;;;;;;;4981075;28;20083;-77
2022/11/06 02:24:06;;;;;;;41.63;37.60;;;;;;;;;;4980421;28;20508;-78
2022/11/06 02:26:56;;;;;;;41.65;37.65;;;;;;;;;;4996830;28;20077;-78
2022/11/06 02:29:48;;;;;;;39.00;35.33;;;;;;;;;;4996912;28;20036;-77
2022/11/06 02:32:23;;;;;;;39.03;35.35;;;;;;;;;;4982806;28;20128;-78
2022/11/06 02:34:49;;;;;;;38.70;35.17;;;;;;;;;;4964951;28;20049;-77
2022/11/06 02:37:20;;;;;;;38.42;34.85;;;;;;;;;;4964270;28;20033;-78
2022/11/06 02:39:46;;;;;;;37.63;34.10;;;;;;;;;;4964891;28;20480;-78
2022/11/06 02:42:11;;;;;;;37.10;33.60;;;;;;;;;;4980450;28;20068;-78
2022/11/06 02:44:37;;;;;;;34.97;31.65;;;;;;;;;;4980545;28;20396;-78
2022/11/06 02:47:07;;;;;;;37.15;33.53;;;;;;;;;;4964264;28;20459;-77
2022/11/06 02:49:39;;;;;;;33.90;30.70;;;;;;;;;;4964476;28;20032;-77
2022/11/06 02:52:07;;;;;;;35.50;32.08;;;;;;;;;;4964736;28;20041;-78
2022/11/06 02:54:34;;;;;;;34.35;31.15;;;;;;;;;;4980448;28;20481;-78
2022/11/06 02:57:01;;;;;;;35.05;31.58;;;;;;;;;;4947766;28;20038;-78
2022/11/06 02:59:53;;;;;;;36.78;33.25;;;;;;;;;;4980426;28;20049;-78
2022/11/06 03:02:21;;;;;;;32.55;29.55;;;;;;;;;;5002190;28;20579;-78
2022/11/06 03:04:54;;;;;;;34.38;31.00;;;;;;;;;;4980423;28;20030;-78
2022/11/06 03:07:22;;;;;;;32.20;29.10;;;;;;;;;;4980039;28;20108;-78
2022/11/06 03:09:48;;;;;;;31.77;28.83;;;;;;;;;;5013793;28;20068;-78
2022/11/06 03:12:36;;;;;;;32.50;29.30;;;;;;;;;;4995864;28;20042;-78
2022/11/06 03:15:17;;;;;;;33.55;30.45;;;;;;;;;;4979870;28;20041;-78
2022/11/06 03:17:50;;;;;;;32.40;29.20;;;;;;;;;;4979297;28;20026;-77
2022/11/06 03:20:23;;;;;;;31.95;28.95;;;;;;;;;;4963804;28;20100;-78
2022/11/06 03:22:53;;;;;;;30.92;28.02;;;;;;;;;;5011567;28;20057;-78
2022/11/06 03:25:22;;;;;;;29.80;27.08;;;;;;;;;;4979747;28;20048;-77
2022/11/06 03:28:00;;;;;;;30.65;27.75;;;;;;;;;;4980124;28;20029;-78
2022/11/06 03:30:25;;;;;;;30.38;27.40;;;;;;;;;;4963855;28;20052;-77
2022/11/06 03:32:57;;;;;;;27.52;24.90;;;;;;;;;;4963700;28;20468;-77
2022/11/06 03:35:25;;;;;;;29.30;26.50;;;;;;;;;;4978958;28;20061;-78
2022/11/06 03:38:12;;;;;;;30.55;27.65;;;;;;;;;;4979942;28;20041;-78
2022/11/06 03:40:40;;;;;;;28.15;25.50;;;;;;;;;;4982087;28;20141;-78
2022/11/06 03:43:07;;;;;;;27.55;24.77;;;;;;;;;;4963545;28;20113;-78
2022/11/06 03:45:32;;;;;;;28.38;25.67;;;;;;;;;;4963119;28;20543;-77
2022/11/06 03:48:11;;;;;;;26.80;24.17;;;;;;;;;;4963502;28;20049;-78
2022/11/06 03:50:51;;;;;;;26.33;23.80;;;;;;;;;;4964111;28;20041;-78
2022/11/06 03:53:26;;;;;;;25.65;23.25;;;;;;;;;;4980694;28;20070;-78
2022/11/06 03:55:58;;;;;;;25.05;22.73;;;;;;;;;;4963255;28;20128;-78
2022/11/06 03:58:26;;;;;;;24.70;22.30;;;;;;;;;;4979621;28;20038;-78
2022/11/06 04:00:52;;;;;;;26.25;23.75;;;;;;;;;;4963275;28;20472;-78
2022/11/06 04:03:24;;;;;;;25.20;22.90;;;;;;;;;;4962747;28;20054;-78
2022/11/06 04:05:52;;;;;;;24.55;22.35;;;;;;;;;;4963588;28;20499;-78
2022/11/06 04:14:00;;;;;;;23.42;21.20;;;;;;;;;;4984148;28;20058;-78
2022/11/06 04:16:34;;;;;;;23.67;21.48;;;;;;;;;;4956951;28;20485;-78
2022/11/06 04:18:59;;;;;;;23.70;21.50;;;;;;;;;;4943533;28;20045;-78
2022/11/06 04:22:01;;;;;;;22.02;19.92;;;;;;;;;;4943542;28;20113;-77
2022/11/06 04:27:48;;;;;;;22.13;20.02;;;;;;;;;;4969179;28;20041;-78
2022/11/06 04:30:14;;;;;;;21.75;19.65;;;;;;;;;;4978552;28;20040;-78
2022/11/06 04:33:00;;;;;;;20.42;18.52;;;;;;;;;;4962090;28;20033;-77
2022/11/06 04:35:38;;;;;;;20.58;18.55;;;;;;;;;;4962467;28;20121;-78
2022/11/06 04:38:22;;;;;;;21.58;19.60;;;;;;;;;;4996024;28;20073;-78
2022/11/06 04:41:13;;;;;;;21.63;19.52;;;;;;;;;;4994655;28;20041;-78
2022/11/06 04:43:48;;;;;;;21.27;19.17;;;;;;;;;;5005259;28;20523;-78
2022/11/06 04:46:19;;;;;;;20.23;18.33;;;;;;;;;;4962517;28;20034;-78
2022/11/06 04:48:44;;;;;;;19.10;17.40;;;;;;;;;;4978431;28;20026;-78
2022/11/06 04:51:10;;;;;;;19.45;17.55;;;;;;;;;;4978474;28;20037;-78
2022/11/06 04:53:35;;;;;;;19.92;18.02;;;;;;;;;;4978423;28;20087;-78
2022/11/06 04:56:09;;;;;;;20.33;18.38;;;;;;;;;;4978225;28;20041;-78
2022/11/06 04:58:34;;;;;;;18.80;16.95;;;;;;;;;;4978677;28;20104;-78
2022/11/06 05:01:00;;;;;;;18.98;17.17;;;;;;;;;;4961540;28;20161;-78
2022/11/06 05:03:25;;;;;;;19.35;17.48;;;;;;;;;;4977709;28;20116;-78
2022/11/06 05:05:51;;;;;;;19.92;17.90;;;;;;;;;;4977966;28;20399;-78
2022/11/06 05:08:18;;;;;;;18.63;16.85;;;;;;;;;;4977838;28;20040;-78
2022/11/06 05:10:43;;;;;;;18.38;16.67;;;;;;;;;;4977494;28;20049;-77
2022/11/06 05:13:08;;;;;;;17.80;16.17;;;;;;;;;;4961827;28;20034;-78
2022/11/06 05:15:34;;;;;;;16.33;14.82;;;;;;;;;;4945713;28;20544;-78
2022/11/06 05:17:59;;;;;;;16.80;15.15;;;;;;;;;;4962136;28;20033;-77
2022/11/06 05:20:25;;;;;;;16.10;14.57;;;;;;;;;;4994191;28;20052;-78
2022/11/06 05:22:59;;;;;;;18.17;16.45;;;;;;;;;;4971931;28;20104;-78
2022/11/06 05:25:31;;;;;;;17.27;15.60;;;;;;;;;;4995135;28;20034;-78
2022/11/06 05:27:57;;;;;;;16.35;14.65;;;;;;;;;;4962599;28;20030;-78
2022/11/06 05:30:23;;;;;;;16.73;15.05;;;;;;;;;;4977302;28;20092;-78
2022/11/06 05:32:48;;;;;;;16.13;14.45;;;;;;;;;;4960934;28;20077;-78
2022/11/06 05:35:15;;;;;;;15.88;14.38;;;;;;;;;;4977660;28;20045;-78
2022/11/06 05:37:40;;;;;;;15.70;14.20;;;;;;;;;;4977585;28;20041;-78
2022/11/06 05:40:07;;;;;;;15.35;13.85;;;;;;;;;;4977714;28;20030;-78
2022/11/06 05:42:33;;;;;;;16.40;14.80;;;;;;;;;;4965324;28;20041;-78
2022/11/06 05:44:59;;;;;;;15.15;13.75;;;;;;;;;;4981672;28;20057;-78
2022/11/06 05:47:24;;;;;;;15.38;13.98;;;;;;;;;;4981589;28;20029;-77
2022/11/06 05:49:50;;;;;;;15.27;13.75;;;;;;;;;;4981852;28;20412;-77
2022/11/06 05:52:15;;;;;;;14.30;12.90;;;;;;;;;;4981627;28;20384;-78
2022/11/06 05:54:40;;;;;;;15.23;13.73;;;;;;;;;;4981646;28;20361;-77
2022/11/06 05:57:06;;;;;;;14.70;13.20;;;;;;;;;;4997459;28;20029;-78
2022/11/06 05:59:31;;;;;;;13.20;12.00;;;;;;;;;;4981115;28;20030;-78
2022/11/06 06:01:58;;;;;;;14.30;13.00;;;;;;;;;;4980518;28;20033;-78
2022/11/06 06:04:23;;;;;;;13.27;12.07;;;;;;;;;;4965490;28;20061;-78
2022/11/06 06:06:49;;;;;;;13.80;12.52;;;;;;;;;;4975805;28;20042;-78
2022/11/06 06:09:14;;;;;;;13.43;11.93;;;;;;;;;;4954137;28;20401;-78
2022/11/06 06:11:40;;;;;;;13.43;12.13;;;;;;;;;;4986371;28;20424;-78
2022/11/06 06:14:06;;;;;;;13.63;12.32;;;;;;;;;;4954828;28;20477;-78
2022/11/06 06:16:31;;;;;;;13.65;12.25;;;;;;;;;;4971914;28;20042;-77
2022/11/06 06:18:57;;;;;;;12.80;11.60;;;;;;;;;;4951213;28;20386;-78
2022/11/06 06:21:22;;;;;;;13.23;11.93;;;;;;;;;;4961602;28;20036;-78
2022/11/06 06:23:48;;;;;;;12.70;11.50;;;;;;;;;;4983796;28;20459;-77
2022/11/06 06:26:13;;;;;;;12.15;10.90;;;;;;;;;;4961332;28;20038;-77
2022/11/06 06:28:39;;;;;;;12.98;11.73;;;;;;;;;;4945300;28;20058;-78
2022/11/06 06:31:05;;;;;;;12.68;11.48;;;;;;;;;;4960963;28;20366;-78
2022/11/06 06:33:30;;;;;;;11.80;10.60;;;;;;;;;;4961229;28;20114;-78
2022/11/06 06:35:56;;;;;;;12.10;10.90;;;;;;;;;;4973109;28;20046;-78
2022/11/06 06:38:21;;;;;;;12.35;11.15;;;;;;;;;;4976136;28;20041;-78
2022/11/06 06:40:47;;;;;;;12.00;10.75;;;;;;;;;;4960275;28;20124;-77
2022/11/06 06:43:12;;;;;;;13.35;10.20;;;;;;;;;;4961115;28;20058;-78
2022/11/06 06:45:38;;;;;;;11.75;10.65;;;;;;;;;;4965853;28;20045;-77
2022/11/06 06:48:05;;;;;;;11.65;10.10;;;;;;;;;;4975240;28;20481;-77
2022/11/06 06:50:33;;;;;;;13.63;11.13;;;;;;;;;;4953895;28;20018;-78
2022/11/06 06:53:04;;;;;;;10.77;9.73;;;;;;;;;;4983906;28;20042;-77
2022/11/06 06:55:34;;;;;;;10.80;9.80;;;;;;;;;;4956727;28;20390;-78
2022/11/06 06:58:00;;;;;;;10.30;9.30;;;;;;;;;;4984822;28;20049;-78
2022/11/06 07:00:25;;;;;;;10.88;9.75;;;;;;;;;;4952716;28;20023;-76
2022/11/06 07:02:51;;;;;;;10.07;9.07;;;;;;;;;;4977085;28;20042;-78
2022/11/06 07:05:17;;;;;;;10.38;9.27;;;;;;;;;;4960947;28;20117;-78
2022/11/06 07:07:42;;;;;;;11.18;10.02;;;;;;;;;;4976878;28;20370;-78
2022/11/06 07:10:07;;;;;;;10.50;9.27;;;;;;;;;;4971416;28;20034;-78
2022/11/06 07:12:33;;;;;;;9.35;8.55;;;;;;;;;;4953116;28;20108;-78
2022/11/06 07:14:58;;;;;;;10.40;9.32;;;;;;;;;;4984549;28;20109;-79
2022/11/06 07:17:24;;;;;;;10.27;8.93;;;;;;;;;;4954417;28;20045;-79
2022/11/06 07:19:49;;;;;;;10.85;8.52;;;;;;;;;;4965640;28;20396;-79
2022/11/06 07:22:15;;;;;;;13.25;9.18;;;;;;;;;;4970616;28;20441;-78
2022/11/06 07:24:40;;;;;;;13.90;9.90;;;;;;;;;;4955258;28;20392;-79
2022/11/06 07:27:06;;;;;;;15.02;8.75;;;;;;;;;;4981507;28;20032;-79
2022/11/06 07:29:31;;;;;;;10.90;8.73;;;;;;;;;;4953062;28;20056;-79
2022/11/06 07:31:57;;;;;;;9.30;7.65;;;;;;;;;;4967572;28;20060;-79
2022/11/06 07:34:22;;;;;;;8.73;7.80;;;;;;;;;;4960342;28;20381;-79
2022/11/06 07:36:48;;;;;;;11.82;8.60;;;;;;;;;;4968532;28;20499;-81
2022/11/06 07:39:13;;;;;;;8.35;7.45;;;;;;;;;;4967974;28;20424;-80
2022/11/06 07:41:39;;;;;;;12.13;8.50;;;;;;;;;;4953617;28;20037;-79
2022/11/06 07:44:05;;;;;;;11.65;7.97;;;;;;;;;;4966486;28;20374;-80
2022/11/06 07:46:30;;;;;;;10.30;8.32;;;;;;;;;;4971867;28;20081;-80
2022/11/06 07:48:56;;;;;;;11.73;8.32;;;;;;;;;;4954044;28;20026;-80
2022/11/06 07:51:21;;;;;;;8.75;7.20;;;;;;;;;;4939112;28;20029;-83
2022/11/06 07:53:47;;;;;;;8.32;7.47;;;;;;;;;;4937237;28;20030;-80
2022/11/06 07:56:13;;;;;;;12.68;9.27;;;;;;;;;;4955907;28;20836;-81
2022/11/06 07:58:38;;;;;;;13.50;8.30;;;;;;;;;;4979972;28;20042;-80
2022/11/06 08:01:04;;;;;;;8.27;7.47;;;;;;;;;;4955299;28;20045;-81
2022/11/06 08:03:30;;;;;;;11.65;8.43;;;;;;;;;;4946361;28;20026;-80
2022/11/06 08:05:56;;;;;;;10.23;7.53;;;;;;;;;;4947019;28;20038;-80
2022/11/06 08:08:21;;;;;;;10.57;7.50;;;;;;;;;;4966419;28;20032;-80
2022/11/06 08:10:47;;;;;;;10.82;7.70;;;;;;;;;;4954667;28;20497;-80
2022/11/06 08:13:14;;;;;;;11.98;7.97;;;;;;;;;;4954205;28;20160;-80
2022/11/06 08:15:40;;;;;;;10.55;7.72;;;;;;;;;;4956392;28;20044;-80
2022/11/06 08:18:06;;;;;;;9.48;7.00;;;;;;;;;;4955193;28;20030;-80
2022/11/06 08:20:36;;;;;;;9.27;7.35;;;;;;;;;;4961831;28;20029;-80
2022/11/06 08:25:48;;;;;;;9.90;8.18;;;;;;;;;;5037680;23;20050;-80
2022/11/06 08:28:14;;;;;;;8.93;7.70;;;;;;;;;;4983384;28;20105;-80
2022/11/06 08:30:39;;;;;;;11.57;7.90;;;;;;;;;;4964833;28;20118;-80
2022/11/06 08:33:06;;;;;;;10.90;8.40;;;;;;;;;;4965767;28;20602;-80
2022/11/06 08:35:32;;;;;;;11.65;7.78;;;;;;;;;;4962931;28;20033;-80
2022/11/06 08:37:58;;;;;;;9.38;7.20;;;;;;;;;;4969892;28;20034;-80
2022/11/06 08:40:23;;;;;;;9.15;7.00;;;;;;;;;;4973047;28;20389;-80
2022/11/06 08:42:49;;;;;;;9.10;7.15;;;;;;;;;;4973162;28;20026;-80
2022/11/06 08:45:15;;;;;;;9.43;7.03;;;;;;;;;;4982121;28;20049;-80
2022/11/06 08:47:41;;;;;;;11.30;6.85;;;;;;;;;;4997782;28;20033;-80
2022/11/06 08:50:06;;;;;;;11.85;6.85;;;;;;;;;;4981471;28;20079;-80
2022/11/06 08:52:32;;;;;;;12.77;7.07;;;;;;;;;;4981369;28;20033;-79
2022/11/06 08:54:57;;;;;;;9.10;6.22;;;;;;;;;;4996685;28;20038;-80
2022/11/06 08:57:23;;;;;;;10.75;6.78;;;;;;;;;;4986942;28;20046;-79
2022/11/06 08:59:48;;;;;;;11.75;6.50;;;;;;;;;;4971219;28;20389;-79
2022/11/06 09:02:13;;;;;;;7.38;6.30;;;;;;;;;;4985854;28;20034;-79
2022/11/06 09:04:39;;;;;;;8.32;5.88;;;;;;;;;;4978087;28;20053;-79
2022/11/06 09:07:04;;;;;;;7.35;5.70;;;;;;;;;;4987661;28;20033;-79
2022/11/06 09:09:33;;;;;;;6.57;5.20;;;;;;;;;;4981040;28;20465;-81
2022/11/06 09:11:59;;;;;;;6.07;5.20;;;;;;;;;;4960368;28;20030;-80
2022/11/06 09:14:24;;;;;;;8.55;5.35;;;;;;;;;;4942695;28;20049;-80
2022/11/06 09:16:50;;;;;;;9.48;5.15;;;;;;;;;;4942301;28;20029;-80
2022/11/06 09:19:15;;;;;;;6.75;4.70;;;;;;;;;;4958551;28;20042;-80
2022/11/06 09:21:40;;;;;;;9.93;4.93;;;;;;;;;;4942831;28;20019;-80
2022/11/06 09:24:06;;;;;;;7.13;4.85;;;;;;;;;;4959000;28;20097;-80
2022/11/06 09:26:31;;;;;;;8.20;5.05;;;;;;;;;;4977639;28;20038;-80
2022/11/06 09:28:57;;;;;;;8.88;4.50;;;;;;;;;;4976554;28;20038;-80
2022/11/06 09:31:22;;;;;;;7.40;4.45;;;;;;;;;;4977753;28;20092;-80
2022/11/06 09:33:47;;;;;;;6.95;4.82;;;;;;;;;;4961565;28;20427;-80
2022/11/06 09:36:13;;;;;;;6.57;4.50;;;;;;;;;;4977980;28;20069;-80
2022/11/06 09:38:38;;;;;;;6.72;4.18;;;;;;;;;;4961491;28;20168;-80
2022/11/06 09:41:04;;;;;;;4.72;3.95;;;;;;;;;;4976133;28;20130;-82
2022/11/06 09:43:42;;;;;;;6.70;4.30;;;;;;;;;;4961966;28;20069;-82
2022/11/06 09:46:28;;;;;;;13.10;4.53;;;;;;;;;;4977973;28;20499;-83
2022/11/06 09:49:09;;;;;;;18.88;5.22;;;;;;;;;;4962195;28;20041;-82
2022/11/06 09:52:01;;;;;;;19.90;4.97;;;;;;;;;;4961335;28;20057;-82
2022/11/06 09:54:42;;;;;;;13.85;4.40;;;;;;;;;;4980103;28;20038;-80
2022/11/06 09:57:22;;;;;;;24.00;5.03;;;;;;;;;;4960887;28;20062;-82
2022/11/06 09:59:47;;;;;;;14.95;4.70;;;;;;;;;;4977056;28;20026;-81
2022/11/06 10:02:37;;;;;;;14.15;4.55;;;;;;;;;;4945195;28;20036;-82
2022/11/06 10:05:05;;;;;;;14.77;4.40;;;;;;;;;;4976617;28;20029;-81
2022/11/06 10:07:35;;;;;;;13.20;3.75;;;;;;;;;;4961001;28;20526;-82
2022/11/06 10:10:01;;;;;;;13.90;3.85;;;;;;;;;;4961867;28;20037;-81
2022/11/06 10:12:37;;;;;;;8.32;3.60;;;;;;;;;;4974115;28;20026;-82
2022/11/06 10:15:22;;;;;;;8.75;3.75;;;;;;;;;;4958048;28;20033;-81
2022/11/06 10:18:08;;;;;;;13.05;3.83;;;;;;;;;;4942481;28;20033;-82
2022/11/06 10:21:15;;;;;;;5.85;2.78;;;;;;;;;;4941711;28;20101;-81
2022/11/06 10:23:46;;;;;;;12.25;2.80;;;;;;;;;;4957487;28;20065;-81
2022/11/06 10:26:14;;;;;;;6.78;3.28;;;;;;;;;;4973910;28;20031;-82
2022/11/06 10:28:59;;;;;;;7.68;3.10;;;;;;;;;;4929776;28;20062;-80
2022/11/06 10:31:39;;;;;;;9.30;2.42;;;;;;;;;;4993828;28;20073;-81
2022/11/06 10:34:10;;;;;;;5.93;2.50;;;;;;;;;;4993776;28;20045;-82
2022/11/06 10:36:37;;;;;;;4.15;2.00;;;;;;;;;;4945225;28;20027;-81
2022/11/06 10:39:03;;;;;;;9.45;2.67;;;;;;;;;;4961448;28;20034;-81
2022/11/06 10:41:33;;;;;;;6.97;2.00;;;;;;;;;;4945151;28;20048;-80
2022/11/06 10:44:05;;;;;;;8.02;2.22;;;;;;;;;;4945653;28;20049;-81
2022/11/06 10:47:00;;;;;;;4.43;2.75;;;;;;;;;;4989277;28;20075;-80
2022/11/06 10:49:32;;;;;;;8.25;2.60;;;;;;;;;;4981488;28;20090;-80
2022/11/06 10:52:35;;;;;;;6.87;2.60;;;;;;;;;;4977053;28;20821;-81
2022/11/06 10:55:27;;;;;;;7.82;2.83;;;;;;;;;;4966275;28;20281;-80
2022/11/06 10:58:06;;;;;;;8.88;2.95;;;;;;;;;;4985909;28;20080;-80
2022/11/06 11:00:32;;;;;;;5.28;2.50;;;;;;;;;;4969692;28;20490;-80
2022/11/06 11:03:00;;;;;;;7.65;3.22;;;;;;;;;;4962806;28;20024;-80
2022/11/06 11:05:36;;;;;;;8.32;2.45;;;;;;;;;;4993569;28;20384;-81
2022/11/06 11:08:01;;;;;;;9.07;3.17;;;;;;;;;;4967502;28;20026;-80
2022/11/06 11:10:27;;;;;;;13.95;4.28;;;;;;;;;;4958138;28;20018;-80
2022/11/06 11:12:53;;;;;;;19.27;3.53;;;;;;;;;;5005840;28;20080;-80
2022/11/06 11:15:22;;;;;;;13.35;3.50;;;;;;;;;;4970632;28;20040;-81
2022/11/06 11:18:17;;;;;;;11.88;3.35;;;;;;;;;;4969254;28;20030;-80
2022/11/06 11:20:47;;;;;;;10.05;2.33;;;;;;;;;;5004880;28;20037;-80
2022/11/06 11:23:23;;;;;;;8.30;2.53;;;;;;;;;;4966586;28;20034;-81
2022/11/06 11:25:52;;;;;;;6.45;2.40;;;;;;;;;;4989850;28;20057;-81
2022/11/06 11:28:28;;;;;;;9.48;2.78;;;;;;;;;;4986434;28;20030;-81
2022/11/06 11:31:03;;;;;;;7.40;2.78;;;;;;;;;;4965728;28;20086;-81
2022/11/06 11:33:29;;;;;;;6.40;1.88;;;;;;;;;;4972216;28;20792;-81
2022/11/06 11:35:54;;;;;;;8.30;2.95;;;;;;;;;;4952851;28;20030;-82
2022/11/06 11:38:21;;;;;;;5.72;2.10;;;;;;;;;;4971901;28;20104;-81
2022/11/06 11:40:47;;;;;;;6.35;2.03;;;;;;;;;;4956860;28;20122;-82
2022/11/06 11:43:18;;;;;;;8.93;2.22;;;;;;;;;;4971384;28;20033;-81
2022/11/06 11:46:03;;;;;;;6.28;2.05;;;;;;;;;;5004729;28;20577;-82
2022/11/06 11:48:44;;;;;;;4.20;1.83;;;;;;;;;;4973898;28;20064;-82
2022/11/06 11:51:19;;;;;;;5.97;2.50;;;;;;;;;;4971479;28;20018;-81
2022/11/06 11:53:44;;;;;;;6.82;2.38;;;;;;;;;;4972041;28;20049;-81
2022/11/06 11:56:18;;;;;;;9.27;2.60;;;;;;;;;;4978568;28;20048;-81
2022/11/06 11:58:55;;;;;;;5.75;2.00;;;;;;;;;;4967076;28;20068;-81
2022/11/06 12:01:36;;;;;;;15.13;2.92;;;;;;;;;;4998168;28;20029;-82
2022/11/06 12:04:13;;;;;;;10.70;2.22;;;;;;;;;;4999753;28;20112;-83
2022/11/06 12:06:58;;;;;;;7.90;2.53;;;;;;;;;;4969034;28;20128;-82
2022/11/06 12:09:23;;;;;;;10.73;2.00;;;;;;;;;;4947713;28;20109;-83
2022/11/06 12:11:50;;;;;;;10.38;3.08;;;;;;;;;;4982995;28;20122;-83
2022/11/06 12:14:35;;;;;;;7.35;2.13;;;;;;;;;;4959325;28;20445;-83
2022/11/06 12:17:20;;;;;;;9.23;1.88;;;;;;;;;;4945676;28;20037;-82
2022/11/06 12:19:49;;;;;;;3.60;1.20;;;;;;;;;;4943955;28;20042;-83
2022/11/06 12:22:22;;;;;;;6.70;1.83;;;;;;;;;;4943590;28;20030;-82
2022/11/06 12:24:57;;;;;;;4.40;1.83;;;;;;;;;;4943819;28;20480;-83
2022/11/06 12:27:26;;;;;;;9.02;2.50;;;;;;;;;;4943640;28;20380;-82
2022/11/06 12:30:02;;;;;;;7.80;1.98;;;;;;;;;;4959602;28;20061;-82
2022/11/06 12:32:53;;;;;;;8.20;2.42;;;;;;;;;;4984755;28;20045;-82
2022/11/06 12:35:18;;;;;;;7.53;2.03;;;;;;;;;;4967542;28;20040;-82
2022/11/06 12:37:52;;;;;;;8.75;2.35;;;;;;;;;;5004842;28;20037;-82
2022/11/06 12:40:19;;;;;;;6.68;1.60;;;;;;;;;;4984530;28;20041;-82
2022/11/06 12:43:16;;;;;;;6.68;2.10;;;;;;;;;;4953435;28;20488;-82
2022/11/06 12:45:47;;;;;;;12.82;2.10;;;;;;;;;;5001974;28;20089;-82
2022/11/06 12:48:29;;;;;;;6.27;2.20;;;;;;;;;;4977742;28;20033;-82
2022/11/06 12:51:00;;;;;;;6.72;1.80;;;;;;;;;;5004476;28;20092;-82
2022/11/06 12:53:58;;;;;;;4.00;1.50;;;;;;;;;;4989045;28;20044;-82
2022/11/06 12:56:30;;;;;;;10.30;1.80;;;;;;;;;;4991414;28;20269;-82
2022/11/06 12:59:04;;;;;;;5.13;1.95;;;;;;;;;;4963917;28;20030;-82
2022/11/06 13:01:58;;;;;;;7.05;1.55;;;;;;;;;;4957874;28;20029;-82
2022/11/06 13:04:40;;;;;;;4.75;1.70;;;;;;;;;;4997122;28;20361;-82
2022/11/06 13:07:31;;;;;;;8.45;2.00;;;;;;;;;;4978110;28;20045;-82
2022/11/06 13:10:36;;;;;;;9.03;1.60;;;;;;;;;;4956841;28;20551;-83
2022/11/06 13:13:06;;;;;;;6.45;2.08;;;;;;;;;;4985483;28;20038;-83
2022/11/06 13:16:10;;;;;;;11.48;3.70;;;;;;;;;;4942089;28;20042;-83
2022/11/06 13:18:50;;;;;;;17.15;7.75;;;;;;;;;;4912770;29;20499;-82
2022/11/06 13:21:52;;;;;;;44.20;24.38;;;;;;;;;;4866784;29;20063;-82
2022/11/06 13:24:29;;;;;;;110.22;61.42;;;;;;;;;;4959461;28;20046;-82
2022/11/06 13:27:08;;;;;;;140.55;79.68;;;;;;;;;;4959790;28;20064;-82
2022/11/06 13:29:34;;;;;;;157.10;94.65;;;;;;;;;;4927064;28;20261;-82
2022/11/06 13:32:01;;;;;;;146.20;90.30;;;;;;;;;;4942453;28;20477;-82
2022/11/06 13:34:32;;;;;;;126.53;77.90;;;;;;;;;;4942499;28;20396;-82
2022/11/06 13:36:57;;;;;;;124.35;75.55;;;;;;;;;;4942972;28;20496;-82
2022/11/06 13:39:40;;;;;;;124.55;73.45;;;;;;;;;;4957298;28;20129;-82
2022/11/06 13:42:08;;;;;;;;;;;;;;;;;;4962069;28;20034;-83
2022/11/06 13:44:34;;;;;;;103.63;60.58;;;;;;;;;;4961359;28;19913;-82
2022/11/06 13:47:15;;;;;;;101.05;62.58;;;;;;;;;;4959880;28;20105;-82
2022/11/06 13:49:54;;;;;;;104.18;64.32;;;;;;;;;;4958162;28;20045;-82
2022/11/06 13:52:48;;;;;;;100.18;61.28;;;;;;;;;;4942408;28;20033;-83
2022/11/06 13:55:24;;;;;;;98.10;61.15;;;;;;;;;;4957845;28;20049;-84
2022/11/06 13:58:08;;;;;;;100.45;59.03;;;;;;;;;;4958560;28;20042;-84
2022/11/06 14:00:53;;;;;;;99.10;57.78;;;;;;;;;;4957657;28;20045;-84
2022/11/06 14:03:18;;;;;;;91.13;55.85;;;;;;;;;;4961220;28;20034;-84
2022/11/06 14:06:07;;;;;;;93.82;55.35;;;;;;;;;;4970658;28;20068;-84
2022/11/06 14:08:38;;;;;;;93.25;56.92;;;;;;;;;;4975393;28;20058;-84
2022/11/06 14:11:14;;;;;;;94.10;56.08;;;;;;;;;;4974410;28;20042;-84
2022/11/06 14:13:39;;;;;;;84.82;53.47;;;;;;;;;;4946965;28;20034;-84
2022/11/06 14:16:21;;;;;;;90.85;53.33;;;;;;;;;;4946091;28;20081;-84
2022/11/06 14:19:22;;;;;;;84.75;52.30;;;;;;;;;;4963831;28;20044;-84
2022/11/06 14:21:57;;;;;;;84.57;48.63;;;;;;;;;;4953391;28;20046;-84
2022/11/06 14:24:32;;;;;;;102.53;64.82;;;;;;;;;;4946508;28;20376;-87
2022/11/06 14:27:00;;;;;;;91.20;57.72;;;;;;;;;;4977823;28;20492;-86
2022/11/06 14:29:26;;;;;;;79.72;50.97;;;;;;;;;;4949229;28;20030;-87
2022/11/06 14:32:10;;;;;;;79.82;50.97;;;;;;;;;;4977698;28;20444;-87
2022/11/06 14:34:40;;;;;;;76.85;48.63;;;;;;;;;;4962171;28;20034;-87
2022/11/06 14:37:17;;;;;;;73.13;44.85;;;;;;;;;;4932767;28;20143;-87
2022/11/06 14:39:55;;;;;;;74.07;45.75;;;;;;;;;;4981348;28;20034;-86
2022/11/06 14:42:34;;;;;;;70.35;44.42;;;;;;;;;;4980977;28;20109;-87
2022/11/06 14:45:01;;;;;;;71.80;43.33;;;;;;;;;;4946335;28;20030;-86
2022/11/06 14:47:44;;;;;;;68.88;43.08;;;;;;;;;;4977720;28;20030;-87
2022/11/06 14:50:23;;;;;;;65.28;42.28;;;;;;;;;;4978176;28;20037;-87
2022/11/06 14:52:58;;;;;;;64.07;40.60;;;;;;;;;;4977728;28;20366;-88
2022/11/06 14:55:26;;;;;;;64.72;40.05;;;;;;;;;;4977760;28;20429;-87
2022/11/06 14:57:53;;;;;;;66.22;39.13;;;;;;;;;;4961507;28;20077;-87
2022/11/06 15:00:56;;;;;;;59.75;39.75;;;;;;;;;;4977934;28;20412;-88
2022/11/06 15:03:35;;;;;;;64.68;38.70;;;;;;;;;;4949763;28;20489;-86